Airfield :
LOGIN :

Register | Disclaimer

   EN    FR    IT 

 










Legend :    VFR   Marginal VFR   IFR   Intensive IFR   Very Intensive IFR
Visi :
Ceiling :
>= 8 km
>= 3000ft
5 to 8 km
1000 to 3000 ft
1500m to 5 km
500 to 1000 ft
800 to 1500m
200 to 500 ft
< 800m
< 200 ft
Symbols :   Thunderstorms  Fog  Heavy snow  Heavy precipitations  Wind > 20 kt
SIGMETs :     Misc.  Thunderstorms  Icing  Turbulence  Mountain Waves  Volcanic Ashes







- Airport Elevation : 357 ft
- IATA code : TUF
- Download approach charts


LFOT - Tours

CURRENT METAR :
  • 220930Z AUTO 19008KT 4900 -SNRA BR OVC005/// ///TCU 01/01 Q1008 TEMPO BKN004 BECMG 6000 NSW

EXPIRED METARs :
  • 220900Z AUTO 19008KT 4400 -RA BR OVC006 01/01 Q1008 TEMPO 1500 SNRA BKN003
  • 220830Z AUTO 18010KT 4200 -RA BR OVC006/// ///TCU 01/01 Q1008 TEMPO 1500 SNRA BKN003
  • 220800Z AUTO 18010KT 4100 -SNRA BR OVC006/// ///TCU 01/00 Q1009 TEMPO 1500 SNRA BKN003
  • 220730Z AUTO 18009KT 5000 +FZRA BR OVC007/// ///TCU 01/00 Q1009 TEMPO 1500 SNRA BKN003
  • 220700Z AUTO 18009KT 4900 -FZRA BR OVC008/// ///TCU 01/00 Q1010 TEMPO 1500 SNRA BKN003

TAF TAF LFOT
Valid from the 22 at 06:00 until the 23 at 06:00 UTC


220500Z 2206/2306 18008KT 6000 BKN018
TEMPO 2206/2208 2000 BR BKN008
PROB40
TEMPO 2206/2208 FZRA
TEMPO 2208/2211 1500 SNRA BKN003
TEMPO 2211/2215 BKN004
TEMPO 2221/2306 2000 SHRASN BKN009 SCT020CB
BECMG 2304/2306 30010KT
No reported NOTAMs for that airfield.



MET'MAP, your aeronautical weather chart ! - Copyright ORBIFLY December 2007 - Disclaimer

ORBIFLY MET'MAP TEAM :

Programming & Development : Alexandra Zaïnal
Concept & Development : Baudouin d'Aumeries
Co-Development & Prog : Marc-Olivier Méhu
Technical & hardware support : Manuel Goepfert

Contact : metmap@orbifly.com




SOURCES & CREDITS :

   NOAA